sensor_id;sensor_type;location;lat;lon;timestamp;temperature;humidity
75824;DHT22;64457;51.976;9.834;2023-12-20T00:00:14;11.30;99.90
75824;DHT22;64457;51.976;9.834;2023-12-20T00:02:42;11.50;99.90
75824;DHT22;64457;51.976;9.834;2023-12-20T00:05:12;11.50;99.90
75824;DHT22;64457;51.976;9.834;2023-12-20T00:07:40;11.30;99.90
75824;DHT22;64457;51.976;9.834;2023-12-20T00:10:11;11.00;99.90
75824;DHT22;64457;51.976;9.834;2023-12-20T00:12:39;11.10;99.90
75824;DHT22;64457;51.976;9.834;2023-12-20T00:15:07;11.00;99.90
75824;DHT22;64457;51.976;9.834;2023-12-20T00:17:35;11.10;99.90
75824;DHT22;64457;51.976;9.834;2023-12-20T00:20:04;11.20;99.90
75824;DHT22;64457;51.976;9.834;2023-12-20T00:22:34;11.30;99.90
75824;DHT22;64457;51.976;9.834;2023-12-20T00:25:01;11.30;99.90
75824;DHT22;64457;51.976;9.834;2023-12-20T00:27:31;11.40;99.90
75824;DHT22;64457;51.976;9.834;2023-12-20T00:29:58;11.20;99.90
75824;DHT22;64457;51.976;9.834;2023-12-20T00:32:26;11.10;99.90
75824;DHT22;64457;51.976;9.834;2023-12-20T00:34:54;11.20;99.90
75824;DHT22;64457;51.976;9.834;2023-12-20T00:37:22;11.20;99.90
75824;DHT22;64457;51.976;9.834;2023-12-20T00:39:49;11.30;99.90
75824;DHT22;64457;51.976;9.834;2023-12-20T00:42:17;10.90;99.90
75824;DHT22;64457;51.976;9.834;2023-12-20T00:44:46;10.90;99.90
75824;DHT22;64457;51.976;9.834;2023-12-20T00:47:13;10.90;99.90
75824;DHT22;64457;51.976;9.834;2023-12-20T00:49:41;11.00;99.90
75824;DHT22;64457;51.976;9.834;2023-12-20T00:52:09;11.10;99.90
75824;DHT22;64457;51.976;9.834;2023-12-20T00:54:37;11.20;99.90
75824;DHT22;64457;51.976;9.834;2023-12-20T00:57:05;11.30;99.90
75824;DHT22;64457;51.976;9.834;2023-12-20T00:59:33;11.30;99.90
75824;DHT22;64457;51.976;9.834;2023-12-20T01:02:02;11.30;99.90
75824;DHT22;64457;51.976;9.834;2023-12-20T01:04:30;11.20;99.90
75824;DHT22;64457;51.976;9.834;2023-12-20T01:06:58;11.30;99.90
75824;DHT22;64457;51.976;9.834;2023-12-20T01:09:26;11.40;99.90
75824;DHT22;64457;51.976;9.834;2023-12-20T01:11:54;11.40;99.90
75824;DHT22;64457;51.976;9.834;2023-12-20T01:14:21;11.30;99.90
75824;DHT22;64457;51.976;9.834;2023-12-20T01:16:49;11.20;99.90
75824;DHT22;64457;51.976;9.834;2023-12-20T01:19:19;11.10;99.90
75824;DHT22;64457;51.976;9.834;2023-12-20T01:21:47;11.20;99.90
75824;DHT22;64457;51.976;9.834;2023-12-20T01:24:14;11.30;99.90
75824;DHT22;64457;51.976;9.834;2023-12-20T01:26:42;11.20;99.90
75824;DHT22;64457;51.976;9.834;2023-12-20T01:29:09;11.00;99.90
75824;DHT22;64457;51.976;9.834;2023-12-20T01:31:37;10.70;99.90
75824;DHT22;64457;51.976;9.834;2023-12-20T01:34:06;10.60;99.90
75824;DHT22;64457;51.976;9.834;2023-12-20T01:36:37;10.40;99.90
75824;DHT22;64457;51.976;9.834;2023-12-20T01:39:04;10.50;99.90
75824;DHT22;64457;51.976;9.834;2023-12-20T01:41:32;10.40;99.90
75824;DHT22;64457;51.976;9.834;2023-12-20T01:44:00;10.20;99.90
75824;DHT22;64457;51.976;9.834;2023-12-20T01:46:28;10.20;99.90
75824;DHT22;64457;51.976;9.834;2023-12-20T01:48:56;10.10;99.90
75824;DHT22;64457;51.976;9.834;2023-12-20T01:51:24;10.20;99.90
75824;DHT22;64457;51.976;9.834;2023-12-20T01:53:55;10.20;99.90
75824;DHT22;64457;51.976;9.834;2023-12-20T01:56:24;10.10;99.90
75824;DHT22;64457;51.976;9.834;2023-12-20T01:58:53;10.10;99.90
75824;DHT22;64457;51.976;9.834;2023-12-20T02:01:25;9.90;99.90
75824;DHT22;64457;51.976;9.834;2023-12-20T02:03:54;9.90;99.90
75824;DHT22;64457;51.976;9.834;2023-12-20T02:06:23;9.80;99.90
75824;DHT22;64457;51.976;9.834;2023-12-20T02:12:25;9.70;99.90
75824;DHT22;64457;51.976;9.834;2023-12-20T02:14:54;9.70;99.90
75824;DHT22;64457;51.976;9.834;2023-12-20T02:17:22;9.80;99.90
75824;DHT22;64457;51.976;9.834;2023-12-20T02:19:50;9.80;99.90
75824;DHT22;64457;51.976;9.834;2023-12-20T02:22:19;10.00;99.90
75824;DHT22;64457;51.976;9.834;2023-12-20T02:24:46;10.10;99.90
75824;DHT22;64457;51.976;9.834;2023-12-20T02:27:15;10.30;99.90
75824;DHT22;64457;51.976;9.834;2023-12-20T02:29:47;10.30;99.90
75824;DHT22;64457;51.976;9.834;2023-12-20T02:32:15;10.30;99.90
75824;DHT22;64457;51.976;9.834;2023-12-20T02:34:43;10.30;99.90
75824;DHT22;64457;51.976;9.834;2023-12-20T02:37:11;10.40;99.90
75824;DHT22;64457;51.976;9.834;2023-12-20T02:39:40;10.50;99.80
75824;DHT22;64457;51.976;9.834;2023-12-20T02:42:08;10.30;99.90
75824;DHT22;64457;51.976;9.834;2023-12-20T02:44:36;10.10;99.90
75824;DHT22;64457;51.976;9.834;2023-12-20T02:47:04;10.10;99.90
75824;DHT22;64457;51.976;9.834;2023-12-20T02:49:31;10.00;99.90
75824;DHT22;64457;51.976;9.834;2023-12-20T02:51:59;10.00;99.90
75824;DHT22;64457;51.976;9.834;2023-12-20T02:54:27;10.10;99.90
75824;DHT22;64457;51.976;9.834;2023-12-20T02:56:56;10.30;99.90
75824;DHT22;64457;51.976;9.834;2023-12-20T02:59:23;10.30;99.90
75824;DHT22;64457;51.976;9.834;2023-12-20T03:01:51;10.40;99.90
75824;DHT22;64457;51.976;9.834;2023-12-20T03:04:19;10.40;99.90
75824;DHT22;64457;51.976;9.834;2023-12-20T03:06:46;10.30;99.90
75824;DHT22;64457;51.976;9.834;2023-12-20T03:09:13;10.40;99.90
75824;DHT22;64457;51.976;9.834;2023-12-20T03:11:41;10.30;99.90
75824;DHT22;64457;51.976;9.834;2023-12-20T03:14:10;10.10;99.90
75824;DHT22;64457;51.976;9.834;2023-12-20T03:16:38;9.80;99.90
75824;DHT22;64457;51.976;9.834;2023-12-20T03:19:05;9.70;99.90
75824;DHT22;64457;51.976;9.834;2023-12-20T03:21:33;9.80;99.90
75824;DHT22;64457;51.976;9.834;2023-12-20T03:24:00;10.00;99.90
75824;DHT22;64457;51.976;9.834;2023-12-20T03:26:28;10.20;99.90
75824;DHT22;64457;51.976;9.834;2023-12-20T03:28:57;10.30;99.90
75824;DHT22;64457;51.976;9.834;2023-12-20T03:31:26;10.30;99.90
75824;DHT22;64457;51.976;9.834;2023-12-20T03:33:54;10.20;99.60
75824;DHT22;64457;51.976;9.834;2023-12-20T03:36:22;10.10;99.70
75824;DHT22;64457;51.976;9.834;2023-12-20T03:38:49;10.00;99.80
75824;DHT22;64457;51.976;9.834;2023-12-20T03:41:17;9.90;99.90
75824;DHT22;64457;51.976;9.834;2023-12-20T03:43:44;10.00;99.40
75824;DHT22;64457;51.976;9.834;2023-12-20T03:46:12;10.10;99.50
75824;DHT22;64457;51.976;9.834;2023-12-20T03:48:41;10.20;99.30
75824;DHT22;64457;51.976;9.834;2023-12-20T03:51:09;10.00;98.90
75824;DHT22;64457;51.976;9.834;2023-12-20T03:53:38;9.80;99.90
75824;DHT22;64457;51.976;9.834;2023-12-20T03:56:06;9.40;99.90
75824;DHT22;64457;51.976;9.834;2023-12-20T03:58:34;8.90;99.90
75824;DHT22;64457;51.976;9.834;2023-12-20T04:01:02;8.80;99.90
75824;DHT22;64457;51.976;9.834;2023-12-20T04:03:31;9.00;99.90
75824;DHT22;64457;51.976;9.834;2023-12-20T04:06:00;9.20;99.90
75824;DHT22;64457;51.976;9.834;2023-12-20T04:08:27;9.10;99.90
75824;DHT22;64457;51.976;9.834;2023-12-20T04:10:55;9.10;99.90
75824;DHT22;64457;51.976;9.834;2023-12-20T04:13:23;9.10;99.90
75824;DHT22;64457;51.976;9.834;2023-12-20T04:15:51;9.20;99.90
75824;DHT22;64457;51.976;9.834;2023-12-20T04:18:19;9.20;99.90
75824;DHT22;64457;51.976;9.834;2023-12-20T04:20:46;9.30;99.90
75824;DHT22;64457;51.976;9.834;2023-12-20T04:23:16;9.20;99.90
75824;DHT22;64457;51.976;9.834;2023-12-20T04:25:45;8.90;99.90
75824;DHT22;64457;51.976;9.834;2023-12-20T04:28:14;9.30;99.90
75824;DHT22;64457;51.976;9.834;2023-12-20T04:30:42;9.50;99.90
75824;DHT22;64457;51.976;9.834;2023-12-20T04:33:09;9.40;99.90
75824;DHT22;64457;51.976;9.834;2023-12-20T04:35:37;9.40;99.90
75824;DHT22;64457;51.976;9.834;2023-12-20T04:38:06;9.60;99.90
75824;DHT22;64457;51.976;9.834;2023-12-20T04:40:35;9.60;99.90
75824;DHT22;64457;51.976;9.834;2023-12-20T04:43:03;9.50;99.90
75824;DHT22;64457;51.976;9.834;2023-12-20T04:45:31;9.50;99.80
75824;DHT22;64457;51.976;9.834;2023-12-20T04:47:58;9.10;99.90
75824;DHT22;64457;51.976;9.834;2023-12-20T04:50:26;9.10;99.90
75824;DHT22;64457;51.976;9.834;2023-12-20T04:52:54;9.00;99.90
75824;DHT22;64457;51.976;9.834;2023-12-20T04:55:21;9.20;99.90
75824;DHT22;64457;51.976;9.834;2023-12-20T04:57:51;9.20;99.90
75824;DHT22;64457;51.976;9.834;2023-12-20T05:00:18;9.00;99.90
75824;DHT22;64457;51.976;9.834;2023-12-20T05:02:46;8.70;99.90
75824;DHT22;64457;51.976;9.834;2023-12-20T05:05:14;8.80;99.90
75824;DHT22;64457;51.976;9.834;2023-12-20T05:07:43;8.80;99.90
75824;DHT22;64457;51.976;9.834;2023-12-20T05:10:12;8.90;99.90
75824;DHT22;64457;51.976;9.834;2023-12-20T05:12:39;8.90;99.90
75824;DHT22;64457;51.976;9.834;2023-12-20T05:15:09;9.30;99.90
75824;DHT22;64457;51.976;9.834;2023-12-20T05:17:39;9.40;99.90
75824;DHT22;64457;51.976;9.834;2023-12-20T05:20:08;9.50;99.90
75824;DHT22;64457;51.976;9.834;2023-12-20T05:22:36;9.60;99.90
75824;DHT22;64457;51.976;9.834;2023-12-20T05:25:05;9.60;99.90
75824;DHT22;64457;51.976;9.834;2023-12-20T05:27:33;9.70;99.60
75824;DHT22;64457;51.976;9.834;2023-12-20T05:30:00;9.00;99.90
75824;DHT22;64457;51.976;9.834;2023-12-20T05:32:31;9.00;99.90
75824;DHT22;64457;51.976;9.834;2023-12-20T05:34:58;9.20;99.90
75824;DHT22;64457;51.976;9.834;2023-12-20T05:37:26;9.10;99.90
75824;DHT22;64457;51.976;9.834;2023-12-20T05:39:54;9.30;99.90
75824;DHT22;64457;51.976;9.834;2023-12-20T05:42:22;9.30;99.90
75824;DHT22;64457;51.976;9.834;2023-12-20T05:44:49;9.20;99.90
75824;DHT22;64457;51.976;9.834;2023-12-20T05:47:17;9.30;99.90
75824;DHT22;64457;51.976;9.834;2023-12-20T05:49:46;9.10;99.90
75824;DHT22;64457;51.976;9.834;2023-12-20T05:52:14;9.20;99.90
75824;DHT22;64457;51.976;9.834;2023-12-20T05:54:43;9.00;99.90
75824;DHT22;64457;51.976;9.834;2023-12-20T05:57:10;8.80;99.90
75824;DHT22;64457;51.976;9.834;2023-12-20T05:59:39;8.70;99.90
75824;DHT22;64457;51.976;9.834;2023-12-20T06:02:06;8.90;99.90
75824;DHT22;64457;51.976;9.834;2023-12-20T06:04:34;9.10;99.90
75824;DHT22;64457;51.976;9.834;2023-12-20T06:07:03;9.40;99.90
75824;DHT22;64457;51.976;9.834;2023-12-20T06:09:31;9.60;99.90
75824;DHT22;64457;51.976;9.834;2023-12-20T06:11:59;9.60;99.90
75824;DHT22;64457;51.976;9.834;2023-12-20T06:14:27;9.60;99.90
75824;DHT22;64457;51.976;9.834;2023-12-20T06:16:56;9.70;99.90
75824;DHT22;64457;51.976;9.834;2023-12-20T06:19:24;9.80;99.90
75824;DHT22;64457;51.976;9.834;2023-12-20T06:21:53;9.60;99.90
75824;DHT22;64457;51.976;9.834;2023-12-20T06:24:23;9.20;99.90
75824;DHT22;64457;51.976;9.834;2023-12-20T06:26:53;9.00;99.90
75824;DHT22;64457;51.976;9.834;2023-12-20T06:29:21;9.20;99.90
75824;DHT22;64457;51.976;9.834;2023-12-20T06:31:50;9.50;99.90
75824;DHT22;64457;51.976;9.834;2023-12-20T06:34:17;9.40;99.90
75824;DHT22;64457;51.976;9.834;2023-12-20T06:36:45;9.30;99.90
75824;DHT22;64457;51.976;9.834;2023-12-20T06:39:12;9.40;99.90
75824;DHT22;64457;51.976;9.834;2023-12-20T06:41:42;9.50;99.90
75824;DHT22;64457;51.976;9.834;2023-12-20T06:44:09;9.70;99.90
75824;DHT22;64457;51.976;9.834;2023-12-20T06:46:37;9.50;99.90
75824;DHT22;64457;51.976;9.834;2023-12-20T06:49:05;9.50;99.90
75824;DHT22;64457;51.976;9.834;2023-12-20T06:51:33;9.00;99.90
75824;DHT22;64457;51.976;9.834;2023-12-20T06:54:01;9.20;99.90
75824;DHT22;64457;51.976;9.834;2023-12-20T06:56:32;9.30;99.90
75824;DHT22;64457;51.976;9.834;2023-12-20T06:59:00;9.10;99.90
75824;DHT22;64457;51.976;9.834;2023-12-20T07:01:28;9.10;99.90
75824;DHT22;64457;51.976;9.834;2023-12-20T07:03:56;9.20;99.90
75824;DHT22;64457;51.976;9.834;2023-12-20T07:06:23;9.20;99.90
75824;DHT22;64457;51.976;9.834;2023-12-20T07:08:52;9.30;99.90
75824;DHT22;64457;51.976;9.834;2023-12-20T07:11:20;9.20;99.90
75824;DHT22;64457;51.976;9.834;2023-12-20T07:13:47;8.90;99.90
75824;DHT22;64457;51.976;9.834;2023-12-20T07:16:17;9.10;99.90
75824;DHT22;64457;51.976;9.834;2023-12-20T07:18:45;9.10;99.90
75824;DHT22;64457;51.976;9.834;2023-12-20T07:21:13;9.10;99.90
75824;DHT22;64457;51.976;9.834;2023-12-20T07:23:41;9.00;99.90
75824;DHT22;64457;51.976;9.834;2023-12-20T07:26:09;9.00;99.90
75824;DHT22;64457;51.976;9.834;2023-12-20T07:28:39;9.00;99.90
75824;DHT22;64457;51.976;9.834;2023-12-20T07:31:07;8.90;99.90
75824;DHT22;64457;51.976;9.834;2023-12-20T07:33:37;9.00;99.90
75824;DHT22;64457;51.976;9.834;2023-12-20T07:36:06;9.00;99.90
75824;DHT22;64457;51.976;9.834;2023-12-20T07:38:35;8.70;99.90
75824;DHT22;64457;51.976;9.834;2023-12-20T07:41:04;8.80;99.90
75824;DHT22;64457;51.976;9.834;2023-12-20T07:43:31;8.90;99.90
75824;DHT22;64457;51.976;9.834;2023-12-20T07:46:04;9.00;99.90
75824;DHT22;64457;51.976;9.834;2023-12-20T07:48:37;8.90;99.90
75824;DHT22;64457;51.976;9.834;2023-12-20T07:51:04;8.60;99.90
75824;DHT22;64457;51.976;9.834;2023-12-20T07:53:35;8.30;99.90
75824;DHT22;64457;51.976;9.834;2023-12-20T07:56:14;8.30;99.90
75824;DHT22;64457;51.976;9.834;2023-12-20T07:58:42;8.50;99.90
75824;DHT22;64457;51.976;9.834;2023-12-20T08:01:10;8.70;99.90
75824;DHT22;64457;51.976;9.834;2023-12-20T08:03:40;8.90;99.90
75824;DHT22;64457;51.976;9.834;2023-12-20T08:06:07;8.90;99.90
75824;DHT22;64457;51.976;9.834;2023-12-20T08:08:35;8.90;99.90
75824;DHT22;64457;51.976;9.834;2023-12-20T08:11:03;8.80;99.90
75824;DHT22;64457;51.976;9.834;2023-12-20T08:13:31;8.90;99.90
75824;DHT22;64457;51.976;9.834;2023-12-20T08:15:59;8.90;99.90
75824;DHT22;64457;51.976;9.834;2023-12-20T08:18:29;8.80;99.90
75824;DHT22;64457;51.976;9.834;2023-12-20T08:20:59;8.80;99.90
75824;DHT22;64457;51.976;9.834;2023-12-20T08:23:28;8.80;99.90
75824;DHT22;64457;51.976;9.834;2023-12-20T08:25:55;8.80;99.90
75824;DHT22;64457;51.976;9.834;2023-12-20T08:28:23;8.80;99.90
75824;DHT22;64457;51.976;9.834;2023-12-20T08:30:50;8.90;99.90
75824;DHT22;64457;51.976;9.834;2023-12-20T08:33:19;9.00;99.90
75824;DHT22;64457;51.976;9.834;2023-12-20T08:35:47;9.00;99.90
75824;DHT22;64457;51.976;9.834;2023-12-20T08:38:16;9.10;99.90
75824;DHT22;64457;51.976;9.834;2023-12-20T08:40:43;9.20;99.90
75824;DHT22;64457;51.976;9.834;2023-12-20T08:43:11;9.20;99.90
75824;DHT22;64457;51.976;9.834;2023-12-20T08:45:40;9.30;99.90
75824;DHT22;64457;51.976;9.834;2023-12-20T08:48:07;9.50;99.90
75824;DHT22;64457;51.976;9.834;2023-12-20T08:50:35;9.50;99.90
75824;DHT22;64457;51.976;9.834;2023-12-20T08:53:03;9.30;99.90
75824;DHT22;64457;51.976;9.834;2023-12-20T08:55:33;9.20;99.90
75824;DHT22;64457;51.976;9.834;2023-12-20T08:58:00;9.20;99.90
75824;DHT22;64457;51.976;9.834;2023-12-20T09:00:28;9.20;99.90
75824;DHT22;64457;51.976;9.834;2023-12-20T09:02:55;9.20;99.90
75824;DHT22;64457;51.976;9.834;2023-12-20T09:05:23;9.40;99.90
75824;DHT22;64457;51.976;9.834;2023-12-20T09:07:50;9.20;99.90
75824;DHT22;64457;51.976;9.834;2023-12-20T09:10:18;9.20;99.90
75824;DHT22;64457;51.976;9.834;2023-12-20T09:12:49;9.30;99.90
75824;DHT22;64457;51.976;9.834;2023-12-20T09:15:20;9.40;99.90
75824;DHT22;64457;51.976;9.834;2023-12-20T09:17:48;9.50;99.90
75824;DHT22;64457;51.976;9.834;2023-12-20T09:20:15;9.30;99.90
75824;DHT22;64457;51.976;9.834;2023-12-20T09:22:43;9.30;99.90
75824;DHT22;64457;51.976;9.834;2023-12-20T09:25:11;9.30;99.90
75824;DHT22;64457;51.976;9.834;2023-12-20T09:27:41;9.60;99.90
75824;DHT22;64457;51.976;9.834;2023-12-20T09:30:10;9.90;99.90
75824;DHT22;64457;51.976;9.834;2023-12-20T09:32:39;9.80;99.90
75824;DHT22;64457;51.976;9.834;2023-12-20T09:35:07;9.50;99.90
75824;DHT22;64457;51.976;9.834;2023-12-20T09:37:36;9.30;99.90
75824;DHT22;64457;51.976;9.834;2023-12-20T09:40:04;9.20;99.90
75824;DHT22;64457;51.976;9.834;2023-12-20T09:42:39;9.40;99.90
75824;DHT22;64457;51.976;9.834;2023-12-20T09:45:20;9.60;99.90
75824;DHT22;64457;51.976;9.834;2023-12-20T09:47:49;9.10;99.90
75824;DHT22;64457;51.976;9.834;2023-12-20T09:50:18;9.20;99.90
75824;DHT22;64457;51.976;9.834;2023-12-20T09:52:50;9.40;99.90
75824;DHT22;64457;51.976;9.834;2023-12-20T09:55:19;9.50;99.90
75824;DHT22;64457;51.976;9.834;2023-12-20T09:57:48;9.70;99.90
75824;DHT22;64457;51.976;9.834;2023-12-20T10:00:19;9.40;99.90
75824;DHT22;64457;51.976;9.834;2023-12-20T10:02:52;9.20;99.90
75824;DHT22;64457;51.976;9.834;2023-12-20T10:05:27;9.40;99.90
75824;DHT22;64457;51.976;9.834;2023-12-20T10:07:56;9.60;99.90
75824;DHT22;64457;51.976;9.834;2023-12-20T10:10:24;9.60;99.90
75824;DHT22;64457;51.976;9.834;2023-12-20T10:13:03;9.70;99.90
75824;DHT22;64457;51.976;9.834;2023-12-20T10:15:35;9.80;99.90
75824;DHT22;64457;51.976;9.834;2023-12-20T10:18:03;9.70;99.90
75824;DHT22;64457;51.976;9.834;2023-12-20T10:20:33;9.20;99.90
75824;DHT22;64457;51.976;9.834;2023-12-20T10:23:01;9.40;99.90
75824;DHT22;64457;51.976;9.834;2023-12-20T10:25:29;9.40;99.90
75824;DHT22;64457;51.976;9.834;2023-12-20T10:28:11;9.40;99.90
75824;DHT22;64457;51.976;9.834;2023-12-20T10:30:44;9.40;99.90
75824;DHT22;64457;51.976;9.834;2023-12-20T10:33:13;8.90;99.90
75824;DHT22;64457;51.976;9.834;2023-12-20T10:35:41;8.90;99.90
75824;DHT22;64457;51.976;9.834;2023-12-20T10:38:10;9.20;99.90
75824;DHT22;64457;51.976;9.834;2023-12-20T10:40:40;9.30;99.90
75824;DHT22;64457;51.976;9.834;2023-12-20T10:43:09;9.30;99.90
75824;DHT22;64457;51.976;9.834;2023-12-20T10:45:37;9.00;99.90
75824;DHT22;64457;51.976;9.834;2023-12-20T10:48:07;9.10;99.90
75824;DHT22;64457;51.976;9.834;2023-12-20T10:50:38;9.40;99.90
75824;DHT22;64457;51.976;9.834;2023-12-20T10:53:06;9.20;99.90
75824;DHT22;64457;51.976;9.834;2023-12-20T10:55:34;9.20;99.90
75824;DHT22;64457;51.976;9.834;2023-12-20T10:58:07;9.20;99.90
75824;DHT22;64457;51.976;9.834;2023-12-20T11:00:39;9.40;99.90
75824;DHT22;64457;51.976;9.834;2023-12-20T11:03:09;9.60;99.90
75824;DHT22;64457;51.976;9.834;2023-12-20T11:05:44;9.60;99.90
75824;DHT22;64457;51.976;9.834;2023-12-20T11:08:20;9.60;99.90
75824;DHT22;64457;51.976;9.834;2023-12-20T11:10:55;9.70;99.90
75824;DHT22;64457;51.976;9.834;2023-12-20T11:13:31;9.40;99.90
75824;DHT22;64457;51.976;9.834;2023-12-20T11:16:02;9.40;99.90
75824;DHT22;64457;51.976;9.834;2023-12-20T11:18:34;9.30;99.90
75824;DHT22;64457;51.976;9.834;2023-12-20T11:21:02;9.60;99.90
75824;DHT22;64457;51.976;9.834;2023-12-20T11:23:33;9.80;99.90
75824;DHT22;64457;51.976;9.834;2023-12-20T11:26:02;9.90;99.90
75824;DHT22;64457;51.976;9.834;2023-12-20T11:28:30;9.80;99.90
75824;DHT22;64457;51.976;9.834;2023-12-20T11:30:58;9.80;99.90
75824;DHT22;64457;51.976;9.834;2023-12-20T11:33:31;10.00;99.90
75824;DHT22;64457;51.976;9.834;2023-12-20T11:36:13;10.00;99.90
75824;DHT22;64457;51.976;9.834;2023-12-20T11:38:54;10.00;99.90
75824;DHT22;64457;51.976;9.834;2023-12-20T11:41:25;9.80;99.90
75824;DHT22;64457;51.976;9.834;2023-12-20T11:43:54;9.70;99.90
75824;DHT22;64457;51.976;9.834;2023-12-20T11:46:22;9.40;99.90
75824;DHT22;64457;51.976;9.834;2023-12-20T11:48:51;9.40;99.90
75824;DHT22;64457;51.976;9.834;2023-12-20T11:51:18;9.50;99.90
75824;DHT22;64457;51.976;9.834;2023-12-20T11:53:51;9.30;99.90
75824;DHT22;64457;51.976;9.834;2023-12-20T11:56:21;9.20;99.90
75824;DHT22;64457;51.976;9.834;2023-12-20T11:58:49;9.00;99.90
75824;DHT22;64457;51.976;9.834;2023-12-20T12:01:20;9.40;99.90
75824;DHT22;64457;51.976;9.834;2023-12-20T12:03:47;9.30;99.90
75824;DHT22;64457;51.976;9.834;2023-12-20T12:06:17;9.40;99.90
75824;DHT22;64457;51.976;9.834;2023-12-20T12:08:45;9.30;99.90
75824;DHT22;64457;51.976;9.834;2023-12-20T12:11:12;9.30;99.90
75824;DHT22;64457;51.976;9.834;2023-12-20T12:13:40;9.30;99.90
75824;DHT22;64457;51.976;9.834;2023-12-20T12:16:08;9.50;99.90
75824;DHT22;64457;51.976;9.834;2023-12-20T12:18:35;9.60;99.90
75824;DHT22;64457;51.976;9.834;2023-12-20T12:21:03;9.80;99.90
75824;DHT22;64457;51.976;9.834;2023-12-20T12:23:33;9.90;99.90
75824;DHT22;64457;51.976;9.834;2023-12-20T12:26:04;9.60;99.90
75824;DHT22;64457;51.976;9.834;2023-12-20T12:28:35;9.70;99.90
75824;DHT22;64457;51.976;9.834;2023-12-20T12:31:04;9.70;99.90
75824;DHT22;64457;51.976;9.834;2023-12-20T12:33:32;9.70;99.90
75824;DHT22;64457;51.976;9.834;2023-12-20T12:36:00;9.70;99.90
75824;DHT22;64457;51.976;9.834;2023-12-20T12:38:33;9.90;99.90
75824;DHT22;64457;51.976;9.834;2023-12-20T12:41:01;10.00;99.90
75824;DHT22;64457;51.976;9.834;2023-12-20T12:43:29;10.00;99.90
75824;DHT22;64457;51.976;9.834;2023-12-20T12:45:57;10.00;99.90
75824;DHT22;64457;51.976;9.834;2023-12-20T12:48:25;10.10;99.90
75824;DHT22;64457;51.976;9.834;2023-12-20T12:50:54;10.00;99.90
75824;DHT22;64457;51.976;9.834;2023-12-20T12:53:26;9.90;99.90
75824;DHT22;64457;51.976;9.834;2023-12-20T12:55:56;10.10;99.90
75824;DHT22;64457;51.976;9.834;2023-12-20T12:58:23;9.80;99.90
75824;DHT22;64457;51.976;9.834;2023-12-20T13:00:52;10.00;99.90
75824;DHT22;64457;51.976;9.834;2023-12-20T13:03:20;10.20;99.90
75824;DHT22;64457;51.976;9.834;2023-12-20T13:05:50;10.40;99.90
75824;DHT22;64457;51.976;9.834;2023-12-20T13:08:18;10.20;99.90
75824;DHT22;64457;51.976;9.834;2023-12-20T13:10:46;10.00;99.90
75824;DHT22;64457;51.976;9.834;2023-12-20T13:13:16;10.00;99.90
75824;DHT22;64457;51.976;9.834;2023-12-20T13:15:44;10.10;99.90
75824;DHT22;64457;51.976;9.834;2023-12-20T13:18:16;10.10;99.90
75824;DHT22;64457;51.976;9.834;2023-12-20T13:20:45;10.10;99.90
75824;DHT22;64457;51.976;9.834;2023-12-20T13:23:12;10.00;99.90
75824;DHT22;64457;51.976;9.834;2023-12-20T13:25:40;10.10;99.90
75824;DHT22;64457;51.976;9.834;2023-12-20T13:28:08;10.20;99.90
75824;DHT22;64457;51.976;9.834;2023-12-20T13:30:37;10.10;99.90
75824;DHT22;64457;51.976;9.834;2023-12-20T13:33:05;10.00;99.90
75824;DHT22;64457;51.976;9.834;2023-12-20T13:35:34;10.00;99.90
75824;DHT22;64457;51.976;9.834;2023-12-20T13:38:02;9.80;99.90
75824;DHT22;64457;51.976;9.834;2023-12-20T13:40:30;9.70;99.90
75824;DHT22;64457;51.976;9.834;2023-12-20T13:42:59;9.50;99.90
75824;DHT22;64457;51.976;9.834;2023-12-20T13:45:28;9.20;99.90
75824;DHT22;64457;51.976;9.834;2023-12-20T13:47:58;9.10;99.90
75824;DHT22;64457;51.976;9.834;2023-12-20T13:50:29;9.30;99.90
75824;DHT22;64457;51.976;9.834;2023-12-20T13:53:01;9.50;99.90
75824;DHT22;64457;51.976;9.834;2023-12-20T13:55:34;9.60;99.90
75824;DHT22;64457;51.976;9.834;2023-12-20T13:58:17;9.50;99.90
75824;DHT22;64457;51.976;9.834;2023-12-20T14:00:52;9.60;99.90
75824;DHT22;64457;51.976;9.834;2023-12-20T14:03:29;9.60;99.90
75824;DHT22;64457;51.976;9.834;2023-12-20T14:06:01;9.50;99.90
75824;DHT22;64457;51.976;9.834;2023-12-20T14:08:29;9.20;99.90
75824;DHT22;64457;51.976;9.834;2023-12-20T14:10:58;8.80;99.90
75824;DHT22;64457;51.976;9.834;2023-12-20T14:13:27;8.50;99.90
75824;DHT22;64457;51.976;9.834;2023-12-20T14:15:55;8.20;99.90
75824;DHT22;64457;51.976;9.834;2023-12-20T14:18:26;7.90;99.90
75824;DHT22;64457;51.976;9.834;2023-12-20T14:20:55;8.00;99.90
75824;DHT22;64457;51.976;9.834;2023-12-20T14:23:23;8.00;99.90
75824;DHT22;64457;51.976;9.834;2023-12-20T14:25:51;8.00;99.90
75824;DHT22;64457;51.976;9.834;2023-12-20T14:28:19;7.80;99.90
75824;DHT22;64457;51.976;9.834;2023-12-20T14:30:47;7.60;99.90
75824;DHT22;64457;51.976;9.834;2023-12-20T14:33:14;7.80;99.90
75824;DHT22;64457;51.976;9.834;2023-12-20T14:35:43;7.90;99.90
75824;DHT22;64457;51.976;9.834;2023-12-20T14:38:11;8.00;99.90
75824;DHT22;64457;51.976;9.834;2023-12-20T14:40:40;8.20;99.90
75824;DHT22;64457;51.976;9.834;2023-12-20T14:43:08;8.40;99.90
75824;DHT22;64457;51.976;9.834;2023-12-20T14:45:35;8.20;99.90
75824;DHT22;64457;51.976;9.834;2023-12-20T14:48:03;8.20;99.90
75824;DHT22;64457;51.976;9.834;2023-12-20T14:50:32;8.20;99.90
75824;DHT22;64457;51.976;9.834;2023-12-20T14:53:01;8.40;99.90
75824;DHT22;64457;51.976;9.834;2023-12-20T14:55:29;8.50;99.90
75824;DHT22;64457;51.976;9.834;2023-12-20T14:57:57;8.30;99.90
75824;DHT22;64457;51.976;9.834;2023-12-20T15:00:25;8.30;99.90
75824;DHT22;64457;51.976;9.834;2023-12-20T15:02:53;8.50;99.90
75824;DHT22;64457;51.976;9.834;2023-12-20T15:05:21;8.60;99.90
75824;DHT22;64457;51.976;9.834;2023-12-20T15:07:48;8.40;99.90
75824;DHT22;64457;51.976;9.834;2023-12-20T15:10:17;8.30;99.90
75824;DHT22;64457;51.976;9.834;2023-12-20T15:12:44;8.50;99.90
75824;DHT22;64457;51.976;9.834;2023-12-20T15:15:12;8.80;99.90
75824;DHT22;64457;51.976;9.834;2023-12-20T15:17:40;9.00;99.90
75824;DHT22;64457;51.976;9.834;2023-12-20T15:20:09;9.20;99.90
75824;DHT22;64457;51.976;9.834;2023-12-20T15:22:39;9.20;99.90
75824;DHT22;64457;51.976;9.834;2023-12-20T15:25:07;9.20;99.90
75824;DHT22;64457;51.976;9.834;2023-12-20T15:27:37;9.30;99.90
75824;DHT22;64457;51.976;9.834;2023-12-20T15:30:06;9.30;99.90
75824;DHT22;64457;51.976;9.834;2023-12-20T15:32:36;9.30;99.90
75824;DHT22;64457;51.976;9.834;2023-12-20T15:35:04;9.40;99.90
75824;DHT22;64457;51.976;9.834;2023-12-20T15:37:32;9.50;99.90
75824;DHT22;64457;51.976;9.834;2023-12-20T15:40:00;9.30;99.90
75824;DHT22;64457;51.976;9.834;2023-12-20T15:42:28;9.10;99.90
75824;DHT22;64457;51.976;9.834;2023-12-20T15:44:59;9.20;99.90
75824;DHT22;64457;51.976;9.834;2023-12-20T15:47:27;9.30;99.90
75824;DHT22;64457;51.976;9.834;2023-12-20T15:49:55;9.40;99.90
75824;DHT22;64457;51.976;9.834;2023-12-20T15:52:24;9.40;99.90
75824;DHT22;64457;51.976;9.834;2023-12-20T15:54:52;9.20;99.90